WZZ6306 LHBP-LIMJ
Flight info
| Callsign | WZZ6306 |
|---|---|
| Flight time | 1h 39m |
| Altitude | 36000 |
| Route | GILEP DCT ZOLKU DCT SUBES DCT SUNIS DCT RADLY DCT RIFEN/N0447F350 DCT AKADO DCT NISIL DCT BEROK DCT MIVKI M730 KALMO |
| Aircraft | A321/M-SDE1E2E3FGIJ1J4RWXY/LB1 |
Departure
| Time | 2026-05-04 19:46 |
|---|---|
| Airport | Budapest Liszt Ferenc International Airport (LHBP) |
Arrival
| Time | 2026-05-04 21:25 |
|---|---|
| Airport | Genoa Cristoforo Colombo Airport (LIMJ) |
| Time | Latitude | Longitude | Altitude | Speed | Heading |
|---|---|---|---|---|---|
| 2026-05-04 19:03 | 47.43564 | 19.26392 | 457 ft | 0 kts | 222° |
| 2026-05-04 19:36 | 47.43578 | 19.26411 | 457 ft | 2 kts | 223° |
| 2026-05-04 19:36 | 47.43593 | 19.26439 | 457 ft | 4 kts | 264° |
| 2026-05-04 19:37 | 47.43588 | 19.26474 | 455 ft | 4 kts | 304° |
| 2026-05-04 19:37 | 47.43571 | 19.26503 | 455 ft | 0 kts | 314° |
| 2026-05-04 19:39 | 47.43577 | 19.26494 | 457 ft | 3 kts | 312° |
| 2026-05-04 19:40 | 47.43593 | 19.26467 | 458 ft | 4 kts | 312° |
| 2026-05-04 19:40 | 47.43616 | 19.26430 | 457 ft | 5 kts | 311° |
| 2026-05-04 19:40 | 47.43629 | 19.26408 | 457 ft | 1 kts | 312° |
| 2026-05-04 19:40 | 47.43640 | 19.26390 | 457 ft | 4 kts | 312° |
| 2026-05-04 19:41 | 47.43665 | 19.26355 | 457 ft | 5 kts | 324° |
| 2026-05-04 19:41 | 47.43703 | 19.26355 | 458 ft | 6 kts | 25° |
| 2026-05-04 19:41 | 47.43736 | 19.26398 | 456 ft | 7 kts | 44° |
| 2026-05-04 19:41 | 47.43777 | 19.26425 | 458 ft | 7 kts | 350° |
| 2026-05-04 19:42 | 47.43813 | 19.26379 | 458 ft | 7 kts | 313° |
| 2026-05-04 19:42 | 47.43850 | 19.26318 | 458 ft | 9 kts | 311° |
| 2026-05-04 19:42 | 47.43892 | 19.26250 | 458 ft | 8 kts | 313° |
| 2026-05-04 19:42 | 47.43930 | 19.26204 | 458 ft | 7 kts | 340° |
| 2026-05-04 19:43 | 47.43973 | 19.26227 | 459 ft | 7 kts | 40° |
| 2026-05-04 19:43 | 47.44006 | 19.26276 | 460 ft | 7 kts | 46° |
| 2026-05-04 19:43 | 47.44034 | 19.26322 | 462 ft | 5 kts | 50° |
| 2026-05-04 19:43 | 47.44054 | 19.26364 | 466 ft | 4 kts | 59° |
| 2026-05-04 19:44 | 47.44064 | 19.26401 | 469 ft | 4 kts | 73° |
| 2026-05-04 19:44 | 47.44067 | 19.26464 | 471 ft | 10 kts | 92° |
| 2026-05-04 19:44 | 47.44028 | 19.26587 | 469 ft | 15 kts | 129° |
| 2026-05-04 19:44 | 47.43991 | 19.26646 | 469 ft | 0 kts | 133° |
| 2026-05-04 19:45 | 47.43989 | 19.26649 | 470 ft | 5 kts | 133° |
| 2026-05-04 19:45 | 47.43794 | 19.26963 | 472 ft | 77 kts | 132° |
| 2026-05-04 19:45 | 47.43286 | 19.27781 | 464 ft | 139 kts | 132° |
| 2026-05-04 19:45 | 47.42507 | 19.29029 | 544 ft | 179 kts | 133° |
| 2026-05-04 19:46 | 47.41714 | 19.30438 | 1245 ft | 177 kts | 126° |
| 2026-05-04 19:46 | 47.41083 | 19.32018 | 1910 ft | 184 kts | 123° |
| 2026-05-04 19:46 | 47.40454 | 19.33745 | 2196 ft | 204 kts | 122° |
| 2026-05-04 19:46 | 47.39753 | 19.35688 | 2357 ft | 226 kts | 122° |
| 2026-05-04 19:47 | 47.38976 | 19.37813 | 2729 ft | 240 kts | 122° |
| 2026-05-04 19:47 | 47.38039 | 19.39869 | 3279 ft | 248 kts | 143° |
| 2026-05-04 19:47 | 47.36469 | 19.40853 | 3789 ft | 251 kts | 179° |
| 2026-05-04 19:47 | 47.34794 | 19.40214 | 4430 ft | 255 kts | 214° |
| 2026-05-04 19:48 | 47.33617 | 19.38244 | 5118 ft | 261 kts | 239° |
| 2026-05-04 19:48 | 47.32821 | 19.35804 | 5843 ft | 266 kts | 246° |
| 2026-05-04 19:48 | 47.32101 | 19.33279 | 6540 ft | 269 kts | 245° |
| 2026-05-04 19:48 | 47.31323 | 19.30752 | 7224 ft | 272 kts | 243° |
| 2026-05-04 19:49 | 47.30455 | 19.28252 | 7916 ft | 275 kts | 240° |
| 2026-05-04 19:49 | 47.29511 | 19.25791 | 8619 ft | 278 kts | 238° |
| 2026-05-04 19:49 | 47.28507 | 19.23331 | 8925 ft | 281 kts | 237° |
| 2026-05-04 19:49 | 47.27475 | 19.20900 | 8995 ft | 280 kts | 237° |
| 2026-05-04 19:50 | 47.26427 | 19.18485 | 9004 ft | 280 kts | 236° |
| 2026-05-04 19:50 | 47.25406 | 19.16047 | 9000 ft | 280 kts | 244° |
| 2026-05-04 19:50 | 47.24905 | 19.13290 | 9007 ft | 282 kts | 264° |
| 2026-05-04 19:50 | 47.24809 | 19.10399 | 9005 ft | 283 kts | 266° |
| 2026-05-04 19:51 | 47.24733 | 19.07508 | 9003 ft | 283 kts | 266° |
| 2026-05-04 19:51 | 47.24662 | 19.04608 | 9003 ft | 283 kts | 266° |
| 2026-05-04 19:51 | 47.24589 | 19.01717 | 9002 ft | 283 kts | 266° |
| 2026-05-04 19:51 | 47.24512 | 18.98820 | 9001 ft | 283 kts | 266° |
| 2026-05-04 19:52 | 47.24433 | 18.95918 | 9001 ft | 283 kts | 266° |
| 2026-05-04 19:52 | 47.24354 | 18.93025 | 9003 ft | 283 kts | 266° |
| 2026-05-04 19:52 | 47.24272 | 18.90134 | 8997 ft | 282 kts | 266° |
| 2026-05-04 19:52 | 47.24189 | 18.87250 | 8996 ft | 282 kts | 266° |
| 2026-05-04 19:53 | 47.24106 | 18.84370 | 8995 ft | 282 kts | 266° |
| 2026-05-04 19:53 | 47.24022 | 18.81510 | 9192 ft | 286 kts | 266° |
| 2026-05-04 19:53 | 47.23935 | 18.78593 | 9980 ft | 286 kts | 266° |
| 2026-05-04 19:53 | 47.23843 | 18.75585 | 10287 ft | 305 kts | 266° |
| 2026-05-04 19:54 | 47.23743 | 18.72359 | 10416 ft | 327 kts | 266° |
| 2026-05-04 19:54 | 47.23639 | 18.68942 | 10765 ft | 339 kts | 266° |
| 2026-05-04 19:54 | 47.23533 | 18.65440 | 11334 ft | 344 kts | 266° |
| 2026-05-04 19:54 | 47.23426 | 18.61908 | 11948 ft | 348 kts | 266° |
| 2026-05-04 19:55 | 47.23318 | 18.58331 | 12571 ft | 351 kts | 266° |
| 2026-05-04 19:55 | 47.23208 | 18.54718 | 13182 ft | 355 kts | 266° |
| 2026-05-04 19:55 | 47.23093 | 18.51070 | 13797 ft | 359 kts | 266° |
| 2026-05-04 19:55 | 47.22977 | 18.47390 | 14364 ft | 362 kts | 266° |
| 2026-05-04 19:56 | 47.22856 | 18.43681 | 14971 ft | 364 kts | 266° |
| 2026-05-04 19:56 | 47.22735 | 18.39956 | 15562 ft | 366 kts | 266° |
| 2026-05-04 19:56 | 47.22610 | 18.36199 | 16143 ft | 369 kts | 266° |
| 2026-05-04 19:56 | 47.22485 | 18.32408 | 16715 ft | 372 kts | 266° |
| 2026-05-04 19:57 | 47.22358 | 18.28590 | 17280 ft | 375 kts | 266° |
| 2026-05-04 19:57 | 47.22229 | 18.24745 | 17848 ft | 378 kts | 266° |
| 2026-05-04 19:57 | 47.22096 | 18.20861 | 18401 ft | 381 kts | 266° |
| 2026-05-04 19:57 | 47.21960 | 18.16956 | 18889 ft | 384 kts | 266° |
| 2026-05-04 19:58 | 47.21819 | 18.13020 | 19410 ft | 386 kts | 266° |
| 2026-05-04 19:58 | 47.21678 | 18.09061 | 19899 ft | 389 kts | 266° |
| 2026-05-04 19:58 | 47.21538 | 18.05130 | 20406 ft | 391 kts | 266° |
| 2026-05-04 19:58 | 47.21396 | 18.01123 | 20954 ft | 393 kts | 266° |
| 2026-05-04 19:59 | 47.21251 | 17.97104 | 21469 ft | 395 kts | 267° |
| 2026-05-04 19:59 | 47.21102 | 17.93069 | 21998 ft | 396 kts | 267° |
| 2026-05-04 19:59 | 47.20950 | 17.88996 | 22415 ft | 400 kts | 267° |
| 2026-05-04 19:59 | 47.20800 | 17.84891 | 22822 ft | 404 kts | 267° |
| 2026-05-04 20:00 | 47.20646 | 17.80756 | 23284 ft | 406 kts | 267° |
| 2026-05-04 20:00 | 47.20489 | 17.76601 | 23685 ft | 409 kts | 268° |
| 2026-05-04 20:00 | 47.20328 | 17.72415 | 24061 ft | 411 kts | 267° |
| 2026-05-04 20:00 | 47.20162 | 17.68207 | 24408 ft | 414 kts | 267° |
| 2026-05-04 20:01 | 47.19995 | 17.63973 | 24734 ft | 417 kts | 267° |
| 2026-05-04 20:01 | 47.19824 | 17.59711 | 25101 ft | 418 kts | 268° |
| 2026-05-04 20:01 | 47.19652 | 17.55430 | 25460 ft | 421 kts | 267° |
| 2026-05-04 20:01 | 47.19481 | 17.51124 | 25781 ft | 423 kts | 267° |
| 2026-05-04 20:02 | 47.19308 | 17.46795 | 26115 ft | 426 kts | 267° |
| 2026-05-04 20:02 | 47.19131 | 17.42439 | 26456 ft | 428 kts | 267° |
| 2026-05-04 20:02 | 47.18950 | 17.38061 | 26795 ft | 430 kts | 267° |
| 2026-05-04 20:02 | 47.18765 | 17.33661 | 27131 ft | 432 kts | 267° |
| 2026-05-04 20:03 | 47.18579 | 17.29244 | 27450 ft | 434 kts | 267° |
| 2026-05-04 20:03 | 47.18391 | 17.24801 | 27769 ft | 436 kts | 267° |
| 2026-05-04 20:03 | 47.18198 | 17.20339 | 28085 ft | 438 kts | 267° |
| 2026-05-04 20:03 | 47.18001 | 17.15866 | 28404 ft | 440 kts | 267° |
| 2026-05-04 20:04 | 47.17801 | 17.11361 | 28733 ft | 442 kts | 266° |
| 2026-05-04 20:04 | 47.17606 | 17.06911 | 29020 ft | 444 kts | 267° |
| 2026-05-04 20:04 | 47.17405 | 17.02377 | 29337 ft | 445 kts | 267° |
| 2026-05-04 20:04 | 47.17202 | 16.97833 | 29669 ft | 447 kts | 266° |
| 2026-05-04 20:05 | 47.16997 | 16.93259 | 29946 ft | 449 kts | 267° |
| 2026-05-04 20:05 | 47.16788 | 16.88667 | 30176 ft | 452 kts | 266° |
| 2026-05-04 20:05 | 47.16576 | 16.84058 | 30494 ft | 452 kts | 266° |
| 2026-05-04 20:05 | 47.16364 | 16.79458 | 30896 ft | 450 kts | 266° |
| 2026-05-04 20:06 | 47.16150 | 16.74877 | 31269 ft | 449 kts | 266° |
| 2026-05-04 20:06 | 47.15933 | 16.70306 | 31641 ft | 448 kts | 266° |
| 2026-05-04 20:06 | 47.15710 | 16.65753 | 32013 ft | 446 kts | 266° |
| 2026-05-04 20:06 | 47.15487 | 16.61215 | 32397 ft | 445 kts | 266° |
| 2026-05-04 20:07 | 47.15266 | 16.56701 | 32773 ft | 443 kts | 266° |
| 2026-05-04 20:07 | 47.15045 | 16.52187 | 33142 ft | 442 kts | 266° |
| 2026-05-04 20:07 | 47.14823 | 16.47695 | 33512 ft | 440 kts | 266° |
| 2026-05-04 20:07 | 47.14600 | 16.43217 | 33878 ft | 439 kts | 266° |
| 2026-05-04 20:08 | 47.14243 | 16.38774 | 34199 ft | 438 kts | 259° |
| 2026-05-04 20:08 | 47.13442 | 16.34468 | 34479 ft | 437 kts | 250° |
| 2026-05-04 20:08 | 47.12201 | 16.30399 | 34767 ft | 438 kts | 242° |
| 2026-05-04 20:08 | 47.10612 | 16.26590 | 35034 ft | 437 kts | 238° |
| 2026-05-04 20:09 | 47.08990 | 16.22821 | 35308 ft | 437 kts | 239° |
| 2026-05-04 20:09 | 47.07377 | 16.19050 | 35595 ft | 436 kts | 239° |
| 2026-05-04 20:09 | 47.05770 | 16.15279 | 35853 ft | 436 kts | 239° |
| 2026-05-04 20:09 | 47.04165 | 16.11514 | 35957 ft | 436 kts | 239° |
| 2026-05-04 20:10 | 47.02559 | 16.07751 | 35982 ft | 435 kts | 239° |
| 2026-05-04 20:10 | 46.99344 | 16.00245 | 35982 ft | 434 kts | 239° |
| 2026-05-04 20:11 | 46.96115 | 15.92762 | 35985 ft | 434 kts | 239° |
| 2026-05-04 20:11 | 46.92883 | 15.85299 | 35989 ft | 434 kts | 239° |
| 2026-05-04 20:12 | 46.89648 | 15.77846 | 35986 ft | 434 kts | 238° |
| 2026-05-04 20:12 | 46.86427 | 15.70440 | 35990 ft | 435 kts | 238° |
| 2026-05-04 20:13 | 46.83177 | 15.62980 | 35998 ft | 435 kts | 238° |
| 2026-05-04 20:13 | 46.79928 | 15.55537 | 36008 ft | 434 kts | 238° |
| 2026-05-04 20:14 | 46.76675 | 15.48114 | 36013 ft | 434 kts | 238° |
| 2026-05-04 20:14 | 46.73416 | 15.40699 | 36021 ft | 434 kts | 238° |
| 2026-05-04 20:15 | 46.70154 | 15.33300 | 36024 ft | 433 kts | 238° |
| 2026-05-04 20:15 | 46.66894 | 15.25920 | 36029 ft | 433 kts | 238° |
| 2026-05-04 20:16 | 46.63624 | 15.18580 | 36040 ft | 433 kts | 237° |
| 2026-05-04 20:16 | 46.60222 | 15.11425 | 36056 ft | 433 kts | 236° |
| 2026-05-04 20:17 | 46.56746 | 15.04289 | 36056 ft | 432 kts | 236° |
| 2026-05-04 20:17 | 46.53285 | 14.97152 | 36074 ft | 432 kts | 236° |
| 2026-05-04 20:18 | 46.49844 | 14.90022 | 36066 ft | 431 kts | 236° |
| 2026-05-04 20:18 | 46.46404 | 14.82890 | 36074 ft | 431 kts | 236° |
| 2026-05-04 20:19 | 46.42971 | 14.75786 | 36078 ft | 430 kts | 236° |
| 2026-05-04 20:19 | 46.39532 | 14.68707 | 36102 ft | 429 kts | 236° |
| 2026-05-04 20:20 | 46.36103 | 14.61660 | 36109 ft | 427 kts | 236° |
| 2026-05-04 20:20 | 46.33255 | 14.55828 | 36106 ft | 427 kts | 235° |
| 2026-05-04 20:21 | 46.29819 | 14.48811 | 36099 ft | 428 kts | 236° |
| 2026-05-04 20:21 | 46.24089 | 14.37126 | 36098 ft | 429 kts | 236° |
| 2026-05-04 20:22 | 46.21191 | 14.31248 | 36102 ft | 429 kts | 236° |
| 2026-05-04 20:22 | 46.17728 | 14.24240 | 36105 ft | 429 kts | 236° |
| 2026-05-04 20:23 | 46.14287 | 14.17284 | 36113 ft | 429 kts | 236° |
| 2026-05-04 20:23 | 46.10823 | 14.10286 | 36115 ft | 429 kts | 236° |
| 2026-05-04 20:24 | 46.07354 | 14.03312 | 36121 ft | 428 kts | 236° |
| 2026-05-04 20:24 | 46.03882 | 13.96350 | 36130 ft | 427 kts | 236° |
| 2026-05-04 20:25 | 46.00414 | 13.89409 | 36122 ft | 427 kts | 236° |
| 2026-05-04 20:25 | 45.96943 | 13.82480 | 36119 ft | 427 kts | 236° |
| 2026-05-04 20:26 | 45.93477 | 13.75566 | 36129 ft | 427 kts | 236° |
| 2026-05-04 20:26 | 45.90006 | 13.68657 | 36128 ft | 427 kts | 236° |
| 2026-05-04 20:27 | 45.86517 | 13.61765 | 36135 ft | 427 kts | 235° |
| 2026-05-04 20:27 | 45.83070 | 13.54835 | 36133 ft | 426 kts | 237° |
| 2026-05-04 20:28 | 45.79815 | 13.47804 | 36135 ft | 426 kts | 238° |
| 2026-05-04 20:28 | 45.76562 | 13.40706 | 36132 ft | 426 kts | 238° |
| 2026-05-04 20:29 | 45.73274 | 13.33663 | 36130 ft | 425 kts | 237° |
| 2026-05-04 20:29 | 45.69969 | 13.26665 | 36093 ft | 425 kts | 237° |
| 2026-05-04 20:30 | 45.66663 | 13.19671 | 36090 ft | 424 kts | 237° |
| 2026-05-04 20:30 | 45.63353 | 13.12684 | 36086 ft | 424 kts | 237° |
| 2026-05-04 20:31 | 45.60044 | 13.05711 | 36076 ft | 424 kts | 237° |
| 2026-05-04 20:31 | 45.56743 | 12.98755 | 36080 ft | 423 kts | 237° |
| 2026-05-04 20:32 | 45.53432 | 12.91804 | 36089 ft | 423 kts | 237° |
| 2026-05-04 20:32 | 45.50114 | 12.84871 | 36084 ft | 423 kts | 237° |
| 2026-05-04 20:33 | 45.46801 | 12.77953 | 36088 ft | 423 kts | 237° |
| 2026-05-04 20:33 | 45.43504 | 12.71087 | 36080 ft | 422 kts | 237° |
| 2026-05-04 20:34 | 45.40182 | 12.64187 | 36087 ft | 422 kts | 237° |
| 2026-05-04 20:34 | 45.36858 | 12.57298 | 36093 ft | 422 kts | 237° |
| 2026-05-04 20:35 | 45.33615 | 12.50352 | 36092 ft | 421 kts | 243° |
| 2026-05-04 20:35 | 45.31424 | 12.42679 | 36103 ft | 419 kts | 250° |
| 2026-05-04 20:36 | 45.29387 | 12.34907 | 36087 ft | 419 kts | 250° |
| 2026-05-04 20:36 | 45.27343 | 12.27162 | 36089 ft | 419 kts | 250° |
| 2026-05-04 20:37 | 45.25295 | 12.19431 | 36083 ft | 418 kts | 250° |
| 2026-05-04 20:37 | 45.23252 | 12.11708 | 36080 ft | 418 kts | 250° |
| 2026-05-04 20:38 | 45.21206 | 12.03998 | 36095 ft | 418 kts | 250° |
| 2026-05-04 20:38 | 45.19150 | 11.96292 | 36098 ft | 417 kts | 250° |
| 2026-05-04 20:39 | 45.17091 | 11.88604 | 36102 ft | 417 kts | 250° |
| 2026-05-04 20:39 | 45.15026 | 11.80917 | 36093 ft | 417 kts | 250° |
| 2026-05-04 20:40 | 45.12980 | 11.73310 | 36100 ft | 416 kts | 250° |
| 2026-05-04 20:40 | 45.10916 | 11.65676 | 36111 ft | 415 kts | 250° |
| 2026-05-04 20:41 | 45.08846 | 11.58055 | 36111 ft | 414 kts | 250° |
| 2026-05-04 20:41 | 45.06776 | 11.50447 | 36118 ft | 414 kts | 250° |
| 2026-05-04 20:42 | 45.04702 | 11.42832 | 36116 ft | 414 kts | 250° |
| 2026-05-04 20:42 | 45.02626 | 11.35235 | 36117 ft | 414 kts | 250° |
| 2026-05-04 20:43 | 45.00539 | 11.27641 | 36109 ft | 414 kts | 250° |
| 2026-05-04 20:43 | 44.97860 | 11.20475 | 35985 ft | 415 kts | 233° |
| 2026-05-04 20:44 | 44.95881 | 11.17503 | 35733 ft | 417 kts | 224° |
| 2026-05-04 20:44 | 44.93610 | 11.14962 | 35482 ft | 419 kts | 219° |
| 2026-05-04 20:44 | 44.91253 | 11.12531 | 35244 ft | 419 kts | 220° |
| 2026-05-04 20:44 | 44.88915 | 11.10075 | 34997 ft | 419 kts | 220° |
| 2026-05-04 20:45 | 44.86593 | 11.07615 | 34756 ft | 417 kts | 220° |
| 2026-05-04 20:45 | 44.84282 | 11.05161 | 34517 ft | 415 kts | 220° |
| 2026-05-04 20:45 | 44.82014 | 11.02767 | 34283 ft | 410 kts | 220° |
| 2026-05-04 20:45 | 44.79735 | 11.00378 | 34031 ft | 407 kts | 220° |
| 2026-05-04 20:46 | 44.77466 | 10.98007 | 33770 ft | 405 kts | 220° |
| 2026-05-04 20:46 | 44.75211 | 10.95653 | 33495 ft | 403 kts | 220° |
| 2026-05-04 20:46 | 44.72962 | 10.93309 | 33219 ft | 402 kts | 220° |
| 2026-05-04 20:46 | 44.70719 | 10.90970 | 32966 ft | 400 kts | 220° |
| 2026-05-04 20:47 | 44.68491 | 10.88648 | 32710 ft | 399 kts | 220° |
| 2026-05-04 20:47 | 44.66266 | 10.86327 | 32448 ft | 396 kts | 220° |
| 2026-05-04 20:47 | 44.64058 | 10.84025 | 32182 ft | 394 kts | 220° |
| 2026-05-04 20:47 | 44.61864 | 10.81739 | 31943 ft | 393 kts | 220° |
| 2026-05-04 20:48 | 44.59671 | 10.79462 | 31690 ft | 392 kts | 220° |
| 2026-05-04 20:48 | 44.57482 | 10.77198 | 31437 ft | 391 kts | 220° |
| 2026-05-04 20:48 | 44.55294 | 10.74939 | 31206 ft | 389 kts | 220° |
| 2026-05-04 20:48 | 44.53128 | 10.72705 | 30816 ft | 385 kts | 220° |
| 2026-05-04 20:49 | 44.50975 | 10.70482 | 30342 ft | 383 kts | 220° |
| 2026-05-04 20:49 | 44.48833 | 10.68270 | 29827 ft | 381 kts | 219° |
| 2026-05-04 20:49 | 44.46717 | 10.66087 | 29375 ft | 377 kts | 219° |
| 2026-05-04 20:49 | 44.44644 | 10.63948 | 28937 ft | 373 kts | 219° |
| 2026-05-04 20:50 | 44.42565 | 10.61802 | 28494 ft | 370 kts | 219° |
| 2026-05-04 20:50 | 44.40488 | 10.59663 | 28056 ft | 367 kts | 219° |
| 2026-05-04 20:50 | 44.38437 | 10.57550 | 27632 ft | 365 kts | 219° |
| 2026-05-04 20:50 | 44.36395 | 10.55451 | 27205 ft | 364 kts | 218° |
| 2026-05-04 20:51 | 44.34352 | 10.53357 | 26636 ft | 366 kts | 218° |
| 2026-05-04 20:51 | 44.32295 | 10.51249 | 26187 ft | 366 kts | 217° |
| 2026-05-04 20:51 | 44.30310 | 10.49061 | 25794 ft | 362 kts | 226° |
| 2026-05-04 20:51 | 44.28825 | 10.46251 | 25412 ft | 361 kts | 243° |
| 2026-05-04 20:52 | 44.28054 | 10.42932 | 25031 ft | 362 kts | 261° |
| 2026-05-04 20:52 | 44.28018 | 10.39409 | 24359 ft | 370 kts | 271° |
| 2026-05-04 20:52 | 44.28195 | 10.35764 | 23525 ft | 381 kts | 272° |
| 2026-05-04 20:52 | 44.28405 | 10.32108 | 22896 ft | 383 kts | 273° |
| 2026-05-04 20:53 | 44.28628 | 10.28413 | 22381 ft | 381 kts | 273° |
| 2026-05-04 20:53 | 44.28848 | 10.24733 | 21873 ft | 378 kts | 273° |
| 2026-05-04 20:53 | 44.29058 | 10.21090 | 21420 ft | 375 kts | 273° |
| 2026-05-04 20:53 | 44.29258 | 10.17474 | 20970 ft | 372 kts | 272° |
| 2026-05-04 20:54 | 44.29449 | 10.13883 | 20516 ft | 369 kts | 272° |
| 2026-05-04 20:54 | 44.29634 | 10.10325 | 20067 ft | 366 kts | 272° |
| 2026-05-04 20:54 | 44.29814 | 10.06790 | 19634 ft | 363 kts | 272° |
| 2026-05-04 20:54 | 44.29992 | 10.03290 | 19206 ft | 360 kts | 272° |
| 2026-05-04 20:55 | 44.30169 | 9.99818 | 18777 ft | 357 kts | 272° |
| 2026-05-04 20:55 | 44.30343 | 9.96380 | 18345 ft | 354 kts | 272° |
| 2026-05-04 20:55 | 44.30515 | 9.92965 | 17862 ft | 351 kts | 272° |
| 2026-05-04 20:55 | 44.30686 | 9.89560 | 17261 ft | 351 kts | 272° |
| 2026-05-04 20:56 | 44.30855 | 9.86163 | 16732 ft | 350 kts | 272° |
| 2026-05-04 20:56 | 44.31022 | 9.82790 | 16228 ft | 348 kts | 272° |
| 2026-05-04 20:56 | 44.31187 | 9.79434 | 15769 ft | 345 kts | 272° |
| 2026-05-04 20:56 | 44.31352 | 9.76104 | 15273 ft | 342 kts | 272° |
| 2026-05-04 20:57 | 44.31515 | 9.72799 | 14812 ft | 340 kts | 272° |
| 2026-05-04 20:57 | 44.31674 | 9.69553 | 14338 ft | 339 kts | 271° |
| 2026-05-04 20:57 | 44.31834 | 9.66232 | 13849 ft | 338 kts | 272° |
| 2026-05-04 20:57 | 44.31988 | 9.63011 | 13330 ft | 337 kts | 271° |
| 2026-05-04 20:58 | 44.32108 | 9.59758 | 12807 ft | 334 kts | 266° |
| 2026-05-04 20:58 | 44.31856 | 9.56556 | 12292 ft | 331 kts | 259° |
| 2026-05-04 20:58 | 44.31513 | 9.53379 | 11787 ft | 329 kts | 259° |
| 2026-05-04 20:58 | 44.31174 | 9.50235 | 11292 ft | 328 kts | 258° |
| 2026-05-04 20:59 | 44.30833 | 9.47085 | 10805 ft | 327 kts | 259° |
| 2026-05-04 20:59 | 44.30494 | 9.43954 | 10327 ft | 326 kts | 259° |
| 2026-05-04 20:59 | 44.30157 | 9.40833 | 9831 ft | 325 kts | 259° |
| 2026-05-04 20:59 | 44.29819 | 9.37723 | 9296 ft | 324 kts | 259° |
| 2026-05-04 21:00 | 44.29482 | 9.34652 | 8713 ft | 313 kts | 259° |
| 2026-05-04 21:00 | 44.29161 | 9.31723 | 8131 ft | 299 kts | 258° |
| 2026-05-04 21:00 | 44.28852 | 9.28912 | 7549 ft | 288 kts | 258° |
| 2026-05-04 21:00 | 44.28727 | 9.26176 | 6989 ft | 281 kts | 276° |
| 2026-05-04 21:01 | 44.29434 | 9.23674 | 6418 ft | 279 kts | 306° |
| 2026-05-04 21:01 | 44.30839 | 9.21900 | 6061 ft | 268 kts | 323° |
| 2026-05-04 21:01 | 44.32293 | 9.20393 | 5959 ft | 253 kts | 322° |
| 2026-05-04 21:01 | 44.33480 | 9.18681 | 5733 ft | 239 kts | 303° |
| 2026-05-04 21:02 | 44.34180 | 9.16669 | 5325 ft | 228 kts | 284° |
| 2026-05-04 21:02 | 44.34624 | 9.14575 | 4825 ft | 222 kts | 284° |
| 2026-05-04 21:02 | 44.35098 | 9.12541 | 4242 ft | 218 kts | 286° |
| 2026-05-04 21:02 | 44.35550 | 9.10564 | 3896 ft | 204 kts | 286° |
| 2026-05-04 21:03 | 44.35951 | 9.08740 | 3591 ft | 193 kts | 285° |
| 2026-05-04 21:03 | 44.36324 | 9.07024 | 3328 ft | 176 kts | 285° |
| 2026-05-04 21:03 | 44.36667 | 9.05440 | 3083 ft | 166 kts | 286° |
| 2026-05-04 21:03 | 44.36995 | 9.03925 | 2847 ft | 161 kts | 286° |
| 2026-05-04 21:04 | 44.37317 | 9.02439 | 2626 ft | 158 kts | 287° |
| 2026-05-04 21:04 | 44.37635 | 9.00971 | 2408 ft | 157 kts | 287° |
| 2026-05-04 21:04 | 44.37951 | 8.99509 | 2185 ft | 157 kts | 286° |
| 2026-05-04 21:04 | 44.38265 | 8.98057 | 1964 ft | 154 kts | 287° |
| 2026-05-04 21:05 | 44.38576 | 8.96617 | 1745 ft | 155 kts | 287° |
| 2026-05-04 21:05 | 44.38885 | 8.95185 | 1500 ft | 155 kts | 286° |
| 2026-05-04 21:05 | 44.39205 | 8.93743 | 1277 ft | 155 kts | 287° |
| 2026-05-04 21:05 | 44.39551 | 8.92333 | 1018 ft | 153 kts | 288° |
| 2026-05-04 21:06 | 44.39872 | 8.90908 | 728 ft | 151 kts | 285° |
| 2026-05-04 21:06 | 44.40154 | 8.89509 | 487 ft | 153 kts | 284° |
| 2026-05-04 21:06 | 44.40434 | 8.88083 | 327 ft | 153 kts | 284° |
| 2026-05-04 21:06 | 44.40716 | 8.86639 | 167 ft | 155 kts | 284° |
| 2026-05-04 21:07 | 44.40990 | 8.85205 | 32 ft | 148 kts | 285° |
| 2026-05-04 21:07 | 44.41245 | 8.83908 | 22 ft | 143 kts | 285° |
| 2026-05-04 21:07 | 44.41552 | 8.82325 | 438 ft | 179 kts | 284° |
| 2026-05-04 21:07 | 44.41890 | 8.80621 | 1310 ft | 185 kts | 284° |
| 2026-05-04 21:08 | 44.42204 | 8.78958 | 2080 ft | 172 kts | 284° |
| 2026-05-04 21:08 | 44.42188 | 8.77231 | 2287 ft | 190 kts | 247° |
| 2026-05-04 21:08 | 44.41323 | 8.75761 | 2505 ft | 208 kts | 210° |
| 2026-05-04 21:08 | 44.39910 | 8.75044 | 2746 ft | 225 kts | 191° |
| 2026-05-04 21:09 | 44.38371 | 8.74560 | 3381 ft | 227 kts | 189° |
| 2026-05-04 21:09 | 44.36824 | 8.74089 | 4087 ft | 227 kts | 188° |
| 2026-05-04 21:09 | 44.35271 | 8.73787 | 4772 ft | 226 kts | 183° |
| 2026-05-04 21:09 | 44.33703 | 8.73543 | 4967 ft | 226 kts | 182° |
| 2026-05-04 21:10 | 44.32142 | 8.73305 | 5009 ft | 225 kts | 182° |
| 2026-05-04 21:10 | 44.30593 | 8.73074 | 5006 ft | 224 kts | 182° |
| 2026-05-04 21:10 | 44.29045 | 8.72854 | 4983 ft | 223 kts | 180° |
| 2026-05-04 21:10 | 44.27556 | 8.73243 | 4983 ft | 219 kts | 150° |
| 2026-05-04 21:11 | 44.26489 | 8.74728 | 4984 ft | 221 kts | 118° |
| 2026-05-04 21:11 | 44.26137 | 8.76817 | 4988 ft | 224 kts | 96° |
| 2026-05-04 21:11 | 44.26068 | 8.78987 | 4984 ft | 224 kts | 94° |
| 2026-05-04 21:11 | 44.26029 | 8.81161 | 4983 ft | 224 kts | 94° |
| 2026-05-04 21:12 | 44.25993 | 8.83329 | 5073 ft | 223 kts | 94° |
| 2026-05-04 21:12 | 44.25959 | 8.85471 | 5322 ft | 225 kts | 94° |
| 2026-05-04 21:12 | 44.25924 | 8.87657 | 5574 ft | 226 kts | 94° |
| 2026-05-04 21:12 | 44.25889 | 8.89851 | 5827 ft | 228 kts | 94° |
| 2026-05-04 21:13 | 44.25852 | 8.92070 | 5951 ft | 229 kts | 94° |
| 2026-05-04 21:13 | 44.25819 | 8.94288 | 5977 ft | 228 kts | 94° |
| 2026-05-04 21:13 | 44.25758 | 8.96497 | 5975 ft | 228 kts | 101° |
| 2026-05-04 21:13 | 44.25116 | 8.98465 | 5983 ft | 224 kts | 128° |
| 2026-05-04 21:14 | 44.24080 | 9.00096 | 5987 ft | 224 kts | 133° |
| 2026-05-04 21:14 | 44.23003 | 9.01669 | 5984 ft | 224 kts | 134° |
| 2026-05-04 21:14 | 44.21921 | 9.03236 | 5983 ft | 224 kts | 134° |
| 2026-05-04 21:14 | 44.20838 | 9.04804 | 5983 ft | 224 kts | 134° |
| 2026-05-04 21:15 | 44.19755 | 9.06371 | 5979 ft | 224 kts | 134° |
| 2026-05-04 21:15 | 44.18801 | 9.08071 | 5972 ft | 224 kts | 115° |
| 2026-05-04 21:15 | 44.18588 | 9.10219 | 5975 ft | 231 kts | 84° |
| 2026-05-04 21:15 | 44.19175 | 9.12330 | 5983 ft | 237 kts | 66° |
| 2026-05-04 21:16 | 44.19978 | 9.14339 | 5982 ft | 237 kts | 64° |
| 2026-05-04 21:16 | 44.20524 | 9.15657 | 5980 ft | 237 kts | 64° |
| 2026-05-04 21:16 | 44.21489 | 9.17495 | 5974 ft | 232 kts | 45° |
| 2026-05-04 21:16 | 44.22729 | 9.18794 | 5980 ft | 214 kts | 40° |
| 2026-05-04 21:17 | 44.23896 | 9.19967 | 5995 ft | 204 kts | 40° |
| 2026-05-04 21:17 | 44.25037 | 9.21117 | 6007 ft | 201 kts | 40° |
| 2026-05-04 21:17 | 44.26176 | 9.22267 | 5964 ft | 200 kts | 39° |
| 2026-05-04 21:17 | 44.27436 | 9.23074 | 5548 ft | 201 kts | 16° |
| 2026-05-04 21:18 | 44.28778 | 9.23165 | 5341 ft | 190 kts | 355° |
| 2026-05-04 21:18 | 44.30024 | 9.22639 | 5005 ft | 187 kts | 334° |
| 2026-05-04 21:18 | 44.31077 | 9.21619 | 4774 ft | 175 kts | 322° |
| 2026-05-04 21:18 | 44.32014 | 9.20621 | 4560 ft | 166 kts | 323° |
| 2026-05-04 21:19 | 44.32915 | 9.19632 | 4492 ft | 165 kts | 316° |
| 2026-05-04 21:19 | 44.33625 | 9.18381 | 4507 ft | 166 kts | 295° |
| 2026-05-04 21:19 | 44.34089 | 9.16912 | 4494 ft | 163 kts | 287° |
| 2026-05-04 21:19 | 44.34466 | 9.15417 | 4478 ft | 165 kts | 285° |
| 2026-05-04 21:20 | 44.34818 | 9.13891 | 4319 ft | 165 kts | 285° |
| 2026-05-04 21:20 | 44.35174 | 9.12287 | 4105 ft | 173 kts | 285° |
| 2026-05-04 21:20 | 44.35519 | 9.10720 | 3871 ft | 165 kts | 285° |
| 2026-05-04 21:20 | 44.35847 | 9.09213 | 3647 ft | 163 kts | 285° |
| 2026-05-04 21:21 | 44.36181 | 9.07679 | 3427 ft | 162 kts | 285° |
| 2026-05-04 21:21 | 44.36506 | 9.06180 | 3201 ft | 161 kts | 285° |
| 2026-05-04 21:21 | 44.36829 | 9.04694 | 2974 ft | 159 kts | 286° |
| 2026-05-04 21:21 | 44.37145 | 9.03236 | 2764 ft | 158 kts | 286° |
| 2026-05-04 21:22 | 44.37461 | 9.01774 | 2536 ft | 156 kts | 287° |
| 2026-05-04 21:22 | 44.37775 | 9.00324 | 2313 ft | 156 kts | 287° |
| 2026-05-04 21:22 | 44.38088 | 8.98876 | 2093 ft | 155 kts | 287° |
| 2026-05-04 21:22 | 44.38398 | 8.97440 | 1868 ft | 154 kts | 287° |
| 2026-05-04 21:23 | 44.38708 | 8.96004 | 1656 ft | 153 kts | 286° |
| 2026-05-04 21:23 | 44.39015 | 8.94581 | 1428 ft | 154 kts | 286° |
| 2026-05-04 21:23 | 44.39324 | 8.93150 | 1211 ft | 153 kts | 286° |
| 2026-05-04 21:23 | 44.39652 | 8.91743 | 983 ft | 152 kts | 290° |
| 2026-05-04 21:24 | 44.39988 | 8.90353 | 657 ft | 150 kts | 284° |
| 2026-05-04 21:24 | 44.40262 | 8.88945 | 429 ft | 152 kts | 283° |
| 2026-05-04 21:24 | 44.40546 | 8.87524 | 296 ft | 152 kts | 284° |
| 2026-05-04 21:24 | 44.40824 | 8.86119 | 93 ft | 154 kts | 283° |
| 2026-05-04 21:25 | 44.41085 | 8.84716 | 25 ft | 136 kts | 281° |
| 2026-05-04 21:25 | 44.41275 | 8.83762 | 21 ft | 62 kts | 287° |
| 2026-05-04 21:25 | 44.41377 | 8.83245 | 21 ft | 41 kts | 287° |
| 2026-05-04 21:25 | 44.41498 | 8.83088 | 21 ft | 14 kts | 357° |
| 2026-05-04 21:26 | 44.41548 | 8.83167 | 22 ft | 12 kts | 90° |
| 2026-05-04 21:26 | 44.41532 | 8.83270 | 20 ft | 11 kts | 111° |
| 2026-05-04 21:26 | 44.41506 | 8.83380 | 20 ft | 13 kts | 107° |
| 2026-05-04 21:26 | 44.41481 | 8.83507 | 20 ft | 14 kts | 105° |
| 2026-05-04 21:27 | 44.41455 | 8.83639 | 22 ft | 11 kts | 105° |
| 2026-05-04 21:27 | 44.41434 | 8.83750 | 20 ft | 13 kts | 105° |
| 2026-05-04 21:27 | 44.41409 | 8.83876 | 21 ft | 14 kts | 104° |
| 2026-05-04 21:27 | 44.41382 | 8.84015 | 21 ft | 15 kts | 106° |
| 2026-05-04 21:28 | 44.41354 | 8.84163 | 22 ft | 16 kts | 110° |
| 2026-05-04 21:28 | 44.41322 | 8.84311 | 21 ft | 16 kts | 105° |
| 2026-05-04 21:28 | 44.41331 | 8.84433 | 21 ft | 12 kts | 59° |
| 2026-05-04 21:28 | 44.41381 | 8.84527 | 20 ft | 10 kts | 53° |
| 2026-05-04 21:29 | 44.41415 | 8.84613 | 22 ft | 11 kts | 83° |
| 2026-05-04 21:29 | 44.41397 | 8.84712 | 22 ft | 11 kts | 104° |
| 2026-05-04 21:29 | 44.41376 | 8.84823 | 20 ft | 13 kts | 105° |
| 2026-05-04 21:29 | 44.41353 | 8.84947 | 22 ft | 13 kts | 103° |
| 2026-05-04 21:30 | 44.41337 | 8.85038 | 20 ft | 4 kts | 105° |
| 2026-05-04 21:30 | 44.41344 | 8.85076 | 21 ft | 4 kts | 39° |
| 2026-05-04 21:30 | 44.41373 | 8.85091 | 20 ft | 4 kts | 18° |
| 2026-05-04 21:30 | 44.41387 | 8.85096 | 20 ft | 2 kts | 15° |
| 2026-05-04 21:31 | 44.41403 | 8.85102 | 20 ft | 0 kts | 15° |